Time;durP1;ratioP1;P1;durP2;ratioP2;P2;SDS_P1;SDS_P2;PMS_P1;PMS_P2;Temp;Humidity;BMP_temperature;BMP_pressure;BME280_temperature;BME280_humidity;BME280_pressure;Samples;Min_cycle;Max_cycle;Signal;HPM_P1;HPM_P2
2022/11/28 00:01:12;;;;;;;7.07;4.70;;;;;;;;;;5070896;28;20550;-44
2022/11/28 00:03:38;;;;;;;5.90;4.87;;;;;;;;;;5072254;28;20934;-43
2022/11/28 00:06:05;;;;;;;7.13;5.00;;;;;;;;;;5072433;28;20403;-43
2022/11/28 00:08:32;;;;;;;7.07;5.80;;;;;;;;;;5072335;28;20463;-44
2022/11/28 00:10:58;;;;;;;6.23;5.13;;;;;;;;;;5072001;28;20425;-43
2022/11/28 00:13:24;;;;;;;5.37;4.90;;;;;;;;;;5072631;28;20547;-44
2022/11/28 00:15:56;;;;;;;6.57;5.13;;;;;;;;;;5071923;28;20414;-43
2022/11/28 00:18:22;;;;;;;6.10;5.27;;;;;;;;;;5072084;28;20456;-44
2022/11/28 00:20:48;;;;;;;7.57;5.70;;;;;;;;;;5071936;28;20436;-43
2022/11/28 00:23:14;;;;;;;10.90;5.93;;;;;;;;;;5072942;28;20421;-44
2022/11/28 00:25:40;;;;;;;8.47;5.67;;;;;;;;;;5074774;28;20446;-43
2022/11/28 00:28:06;;;;;;;7.87;4.73;;;;;;;;;;5075849;28;20398;-43
2022/11/28 00:30:35;;;;;;;7.17;5.77;;;;;;;;;;5075724;28;20444;-44
2022/11/28 00:33:01;;;;;;;8.47;5.40;;;;;;;;;;5075597;28;20880;-43
2022/11/28 00:35:27;;;;;;;5.63;5.10;;;;;;;;;;5076094;28;20484;-44
2022/11/28 00:37:53;;;;;;;7.57;5.00;;;;;;;;;;5075925;28;20402;-43
2022/11/28 00:40:19;;;;;;;10.03;5.57;;;;;;;;;;5075509;28;20496;-44
2022/11/28 00:42:45;;;;;;;6.87;6.17;;;;;;;;;;5075282;28;20467;-43
2022/11/28 00:45:11;;;;;;;8.50;6.10;;;;;;;;;;5075078;28;20404;-45
2022/11/28 00:47:37;;;;;;;6.50;5.57;;;;;;;;;;5073553;28;20410;-43
2022/11/28 00:50:03;;;;;;;5.97;5.37;;;;;;;;;;5074294;28;20398;-43
2022/11/28 00:52:31;;;;;;;6.37;5.70;;;;;;;;;;5074619;28;20997;-43
2022/11/28 00:54:57;;;;;;;6.83;6.13;;;;;;;;;;5073939;28;20887;-44
2022/11/28 00:57:23;;;;;;;7.40;5.57;;;;;;;;;;5074292;28;20408;-43
2022/11/28 00:59:49;;;;;;;5.80;5.23;;;;;;;;;;5074591;28;20512;-46
2022/11/28 01:02:15;;;;;;;8.13;6.33;;;;;;;;;;5074045;28;20970;-44
2022/11/28 01:04:41;;;;;;;8.60;5.87;;;;;;;;;;5074999;28;20749;-43
2022/11/28 01:07:07;;;;;;;6.97;5.70;;;;;;;;;;5074025;28;20404;-44
2022/11/28 01:09:33;;;;;;;6.20;5.60;;;;;;;;;;5073620;28;20837;-44
2022/11/28 01:11:59;;;;;;;6.10;5.60;;;;;;;;;;5073118;28;20449;-44
2022/11/28 01:14:25;;;;;;;8.23;6.20;;;;;;;;;;5073813;28;20415;-44
2022/11/28 01:16:51;;;;;;;6.00;5.40;;;;;;;;;;5074219;28;20402;-44
2022/11/28 01:19:17;;;;;;;7.27;6.07;;;;;;;;;;5072811;28;20939;-45
2022/11/28 01:21:43;;;;;;;12.03;6.20;;;;;;;;;;5073745;28;20551;-43
2022/11/28 01:24:10;;;;;;;8.60;6.10;;;;;;;;;;5074086;28;20458;-43
2022/11/28 01:26:38;;;;;;;9.07;6.13;;;;;;;;;;5073629;28;20456;-46
2022/11/28 01:29:04;;;;;;;6.50;5.90;;;;;;;;;;5073271;28;20911;-44
2022/11/28 01:31:30;;;;;;;8.20;6.40;;;;;;;;;;5073256;28;20521;-44
2022/11/28 01:33:56;;;;;;;7.20;6.17;;;;;;;;;;5073767;28;20445;-43
2022/11/28 01:36:22;;;;;;;7.60;5.40;;;;;;;;;;5073534;28;20429;-43
2022/11/28 01:38:49;;;;;;;13.13;5.63;;;;;;;;;;5072980;28;20440;-44
2022/11/28 01:41:16;;;;;;;7.33;5.33;;;;;;;;;;5073825;28;20465;-44
2022/11/28 01:44:03;;;;;;;7.93;6.13;;;;;;;;;;5074649;28;20408;-44
2022/11/28 01:46:30;;;;;;;8.90;6.40;;;;;;;;;;5074883;28;20405;-44
2022/11/28 01:48:58;;;;;;;8.37;5.90;;;;;;;;;;5074382;28;20405;-44
2022/11/28 01:51:24;;;;;;;6.57;5.97;;;;;;;;;;5074322;28;20429;-43
2022/11/28 01:53:51;;;;;;;10.30;6.70;;;;;;;;;;5074710;28;20773;-43
2022/11/28 01:56:22;;;;;;;8.83;6.50;;;;;;;;;;5074805;28;20413;-44
2022/11/28 01:58:51;;;;;;;7.43;6.30;;;;;;;;;;5074566;28;20409;-44
2022/11/28 02:01:18;;;;;;;10.90;6.70;;;;;;;;;;5073923;28;20467;-43
2022/11/28 02:03:45;;;;;;;12.83;6.50;;;;;;;;;;5072460;28;20866;-45
2022/11/28 02:06:12;;;;;;;8.60;6.93;;;;;;;;;;5073814;28;20433;-44
2022/11/28 02:08:38;;;;;;;10.00;6.63;;;;;;;;;;5074824;28;20171;-43
2022/11/28 02:11:16;;;;;;;7.60;6.60;;;;;;;;;;5073790;28;20595;-44
2022/11/28 02:14:01;;;;;;;11.20;7.03;;;;;;;;;;5073946;28;20967;-43
2022/11/28 02:16:45;;;;;;;7.47;6.07;;;;;;;;;;5074285;28;20465;-43
2022/11/28 02:19:15;;;;;;;7.53;6.90;;;;;;;;;;5073843;28;20401;-44
2022/11/28 02:21:58;;;;;;;7.40;6.40;;;;;;;;;;5073909;28;20856;-44
2022/11/28 02:24:43;;;;;;;10.70;6.80;;;;;;;;;;5074356;28;20402;-44
2022/11/28 02:27:14;;;;;;;7.27;5.93;;;;;;;;;;5073408;28;20398;-43
2022/11/28 02:29:43;;;;;;;8.83;6.27;;;;;;;;;;5073627;28;20394;-44
2022/11/28 02:32:36;;;;;;;12.63;7.07;;;;;;;;;;5074175;28;20787;-44
2022/11/28 02:35:20;;;;;;;7.50;6.80;;;;;;;;;;5065609;28;20412;-44
2022/11/28 02:37:52;;;;;;;9.30;7.53;;;;;;;;;;5073876;28;20397;-44
2022/11/28 02:40:26;;;;;;;8.47;6.80;;;;;;;;;;5073692;28;20460;-43
2022/11/28 02:43:09;;;;;;;8.37;6.97;;;;;;;;;;5073247;28;20465;-43
2022/11/28 02:45:38;;;;;;;9.20;7.40;;;;;;;;;;5072819;28;20410;-45
2022/11/28 02:48:15;;;;;;;13.40;6.60;;;;;;;;;;5073054;28;20782;-43
2022/11/28 02:50:47;;;;;;;7.77;6.70;;;;;;;;;;5073960;28;20401;-43
2022/11/28 02:53:15;;;;;;;7.43;6.73;;;;;;;;;;5073823;28;20425;-43
2022/11/28 02:55:42;;;;;;;6.53;5.90;;;;;;;;;;5073372;28;20405;-43
2022/11/28 02:58:09;;;;;;;8.20;6.83;;;;;;;;;;5073125;28;20402;-43
2022/11/28 03:00:37;;;;;;;23.07;16.47;;;;;;;;;;5073070;28;20406;-43
2022/11/28 03:03:14;;;;;;;10.10;7.00;;;;;;;;;;5073016;28;20462;-44
2022/11/28 03:05:40;;;;;;;7.20;5.83;;;;;;;;;;5072393;28;20890;-44
2022/11/28 03:08:16;;;;;;;7.00;6.30;;;;;;;;;;5072322;28;20901;-44
2022/11/28 03:11:01;;;;;;;11.80;6.47;;;;;;;;;;5072553;28;20433;-44
2022/11/28 03:13:35;;;;;;;6.77;5.80;;;;;;;;;;5052305;28;20465;-43
2022/11/28 03:16:18;;;;;;;7.30;5.43;;;;;;;;;;5052037;28;20825;-44
2022/11/28 03:18:50;;;;;;;7.80;6.40;;;;;;;;;;5052473;28;20695;-44
2022/11/28 03:21:25;;;;;;;7.60;5.97;;;;;;;;;;5052365;28;20459;-43
2022/11/28 03:23:59;;;;;;;7.00;5.40;;;;;;;;;;5052957;28;20429;-45
2022/11/28 03:26:47;;;;;;;7.10;6.40;;;;;;;;;;5052556;28;20953;-43
2022/11/28 03:29:17;;;;;;;9.37;6.23;;;;;;;;;;5052977;28;20919;-44
2022/11/28 03:31:47;;;;;;;6.70;5.97;;;;;;;;;;5051439;28;20935;-43
2022/11/28 03:34:15;;;;;;;6.53;5.83;;;;;;;;;;5051858;28;20445;-45
2022/11/28 03:37:03;;;;;;;7.30;5.83;;;;;;;;;;5052024;28;20398;-44
2022/11/28 03:39:31;;;;;;;7.93;6.13;;;;;;;;;;5052004;28;20399;-43
2022/11/28 03:42:01;;;;;;;7.23;6.10;;;;;;;;;;5051578;28;20514;-44
2022/11/28 03:44:28;;;;;;;6.90;6.30;;;;;;;;;;5052103;28;20536;-44
2022/11/28 03:46:55;;;;;;;15.40;6.40;;;;;;;;;;5052054;28;20843;-45
2022/11/28 03:49:24;;;;;;;7.30;6.10;;;;;;;;;;5051748;28;20405;-43
2022/11/28 03:51:55;;;;;;;6.83;6.07;;;;;;;;;;5051514;28;20422;-43
2022/11/28 03:54:24;;;;;;;8.03;5.83;;;;;;;;;;5051474;28;20986;-43
2022/11/28 03:56:56;;;;;;;12.07;6.07;;;;;;;;;;5051422;28;20963;-43
2022/11/28 03:59:44;;;;;;;5.70;5.18;;;;;;;;;;5051756;28;20397;-49
2022/11/28 04:02:28;;;;;;;6.53;5.73;;;;;;;;;;5055408;28;20206;-45
2022/11/28 04:05:13;;;;;;;6.57;5.90;;;;;;;;;;5055663;28;20430;-44
2022/11/28 04:07:48;;;;;;;9.67;6.63;;;;;;;;;;5056050;28;20438;-44
2022/11/28 04:10:17;;;;;;;8.80;5.53;;;;;;;;;;5055979;28;20417;-44
2022/11/28 04:13:02;;;;;;;11.57;5.97;;;;;;;;;;5071070;28;20421;-44
2022/11/28 04:15:37;;;;;;;7.53;5.93;;;;;;;;;;5075278;28;20910;-44
2022/11/28 04:18:11;;;;;;;6.93;6.23;;;;;;;;;;5076498;28;20806;-44
2022/11/28 04:20:52;;;;;;;7.77;6.60;;;;;;;;;;5076248;28;20833;-43
2022/11/28 04:23:19;;;;;;;9.70;5.33;;;;;;;;;;5075833;28;20415;-44
2022/11/28 04:25:58;;;;;;;8.27;6.00;;;;;;;;;;5075518;28;20390;-44
2022/11/28 04:28:26;;;;;;;6.47;5.23;;;;;;;;;;5076064;28;20478;-44
2022/11/28 04:30:56;;;;;;;6.13;5.53;;;;;;;;;;5075965;28;20390;-44
2022/11/28 04:33:23;;;;;;;6.40;5.80;;;;;;;;;;5075825;28;20420;-43
2022/11/28 04:35:51;;;;;;;6.73;6.03;;;;;;;;;;5076206;28;20422;-44
2022/11/28 04:38:17;;;;;;;7.70;5.97;;;;;;;;;;5075453;28;20432;-44
2022/11/28 04:40:49;;;;;;;8.77;5.90;;;;;;;;;;5075453;28;20390;-44
2022/11/28 04:43:17;;;;;;;7.83;5.63;;;;;;;;;;5076206;28;20478;-44
2022/11/28 04:45:50;;;;;;;6.30;5.67;;;;;;;;;;5076199;28;20394;-45
2022/11/28 04:48:16;;;;;;;5.87;5.27;;;;;;;;;;5075894;28;20891;-43
2022/11/28 04:51:05;;;;;;;7.53;5.20;;;;;;;;;;5075126;28;20398;-45
2022/11/28 04:53:34;;;;;;;7.60;5.83;;;;;;;;;;5069647;28;20406;-45
2022/11/28 04:59:04;;;;;;;7.77;5.37;;;;;;;;;;5074982;28;20435;-44
2022/11/28 05:01:31;;;;;;;5.60;5.10;;;;;;;;;;5074634;28;20466;-44
2022/11/28 05:03:57;;;;;;;5.70;5.00;;;;;;;;;;5075507;28;20410;-45
2022/11/28 05:06:27;;;;;;;6.40;5.70;;;;;;;;;;5075284;28;20402;-45
2022/11/28 05:08:53;;;;;;;11.40;4.70;;;;;;;;;;5077900;28;20850;-44
2022/11/28 05:11:19;;;;;;;5.97;5.43;;;;;;;;;;5073257;28;20453;-44
2022/11/28 05:13:46;;;;;;;5.53;5.03;;;;;;;;;;5073274;28;20417;-43
2022/11/28 05:16:12;;;;;;;5.47;4.80;;;;;;;;;;5075877;28;20856;-44
2022/11/28 05:18:38;;;;;;;6.80;5.13;;;;;;;;;;5086742;28;20471;-44
2022/11/28 05:21:07;;;;;;;6.30;5.20;;;;;;;;;;5074752;28;20409;-44
2022/11/28 05:23:37;;;;;;;7.50;4.87;;;;;;;;;;5074955;28;20396;-43
2022/11/28 05:26:07;;;;;;;6.97;5.17;;;;;;;;;;5075154;28;20445;-43
2022/11/28 05:28:33;;;;;;;5.53;4.87;;;;;;;;;;5074468;28;20430;-44
2022/11/28 05:31:00;;;;;;;5.10;4.60;;;;;;;;;;5073914;28;20746;-44
2022/11/28 05:33:26;;;;;;;10.63;5.03;;;;;;;;;;5073284;28;20414;-44
2022/11/28 05:35:52;;;;;;;6.30;5.23;;;;;;;;;;5074956;28;20971;-43
2022/11/28 05:38:18;;;;;;;5.90;5.30;;;;;;;;;;5075667;28;20438;-43
2022/11/28 05:40:44;;;;;;;7.90;5.10;;;;;;;;;;5075169;28;20553;-45
2022/11/28 05:43:10;;;;;;;6.10;5.00;;;;;;;;;;5074419;28;20975;-45
2022/11/28 05:45:42;;;;;;;7.30;5.10;;;;;;;;;;5074349;28;20409;-44
2022/11/28 05:48:08;;;;;;;5.80;5.20;;;;;;;;;;5074473;28;20413;-44
2022/11/28 05:50:34;;;;;;;6.33;5.37;;;;;;;;;;5075092;28;20406;-44
2022/11/28 05:53:00;;;;;;;7.07;5.27;;;;;;;;;;5075031;28;20426;-44
2022/11/28 05:55:26;;;;;;;12.17;5.80;;;;;;;;;;5074582;28;20463;-43
2022/11/28 05:57:53;;;;;;;5.70;5.10;;;;;;;;;;5074003;28;20410;-44
2022/11/28 06:00:19;;;;;;;8.73;5.60;;;;;;;;;;5074724;28;20410;-43
2022/11/28 06:02:45;;;;;;;7.63;4.80;;;;;;;;;;5074570;28;20487;-44
2022/11/28 06:05:11;;;;;;;8.33;5.50;;;;;;;;;;5074949;28;20398;-45
2022/11/28 06:07:37;;;;;;;6.43;4.80;;;;;;;;;;5073208;28;20406;-44
2022/11/28 06:10:03;;;;;;;6.17;5.40;;;;;;;;;;5074600;28;20424;-43
2022/11/28 06:12:29;;;;;;;6.50;5.47;;;;;;;;;;5074058;28;20430;-44
2022/11/28 06:14:55;;;;;;;5.47;4.40;;;;;;;;;;5074642;28;20421;-44
2022/11/28 06:17:21;;;;;;;5.80;5.27;;;;;;;;;;5074156;28;20452;-44
2022/11/28 06:19:47;;;;;;;6.43;5.80;;;;;;;;;;5073943;28;20402;-43
2022/11/28 06:22:13;;;;;;;6.07;5.23;;;;;;;;;;5072677;28;20993;-44
2022/11/28 06:24:39;;;;;;;5.97;5.37;;;;;;;;;;5074046;28;20406;-44
2022/11/28 06:27:05;;;;;;;7.40;5.80;;;;;;;;;;5074898;28;20401;-44
2022/11/28 06:29:31;;;;;;;7.97;6.00;;;;;;;;;;5074612;28;20402;-44
2022/11/28 06:31:57;;;;;;;6.73;5.80;;;;;;;;;;5073781;28;20425;-44
2022/11/28 06:34:23;;;;;;;7.83;6.50;;;;;;;;;;5073972;28;20410;-44
2022/11/28 06:36:49;;;;;;;6.60;5.80;;;;;;;;;;5073526;28;20402;-44
2022/11/28 06:39:16;;;;;;;7.90;5.90;;;;;;;;;;5073976;28;20425;-44
2022/11/28 06:41:42;;;;;;;9.10;5.80;;;;;;;;;;5072963;28;20457;-44
2022/11/28 06:44:08;;;;;;;6.53;5.93;;;;;;;;;;5073335;28;20892;-44
2022/11/28 06:46:34;;;;;;;6.37;5.63;;;;;;;;;;5072987;28;20398;-43
2022/11/28 06:49:00;;;;;;;7.57;6.00;;;;;;;;;;5073045;28;20406;-43
2022/11/28 06:51:26;;;;;;;9.40;7.17;;;;;;;;;;5072726;28;20470;-42
2022/11/28 06:53:53;;;;;;;6.47;5.83;;;;;;;;;;5071923;28;20464;-42
2022/11/28 06:56:19;;;;;;;8.17;6.37;;;;;;;;;;5071708;28;20405;-42
2022/11/28 06:58:46;;;;;;;6.90;6.30;;;;;;;;;;5071853;28;20406;-41
2022/11/28 07:01:19;;;;;;;7.23;6.13;;;;;;;;;;5071375;28;20471;-42
2022/11/28 07:03:45;;;;;;;8.13;6.60;;;;;;;;;;5071744;28;20513;-41
2022/11/28 07:06:12;;;;;;;7.50;6.57;;;;;;;;;;5071837;28;20404;-42
2022/11/28 07:08:38;;;;;;;10.60;6.20;;;;;;;;;;5071656;28;20843;-42
2022/11/28 07:11:08;;;;;;;7.20;6.50;;;;;;;;;;5071080;28;20442;-42
2022/11/28 07:13:34;;;;;;;10.07;6.50;;;;;;;;;;5071875;28;20918;-41
2022/11/28 07:16:00;;;;;;;7.80;6.67;;;;;;;;;;5071913;28;20405;-41
2022/11/28 07:18:25;;;;;;;8.97;6.30;;;;;;;;;;5071646;28;20505;-42
2022/11/28 07:20:51;;;;;;;8.67;6.33;;;;;;;;;;5071185;28;20401;-43
2022/11/28 07:23:17;;;;;;;7.77;6.70;;;;;;;;;;5071438;28;20422;-43
2022/11/28 07:25:43;;;;;;;7.03;6.20;;;;;;;;;;5071567;28;20398;-42
2022/11/28 07:28:09;;;;;;;8.50;6.53;;;;;;;;;;5071545;28;20397;-42
2022/11/28 07:30:35;;;;;;;7.10;6.10;;;;;;;;;;5071402;28;21017;-42
2022/11/28 07:33:01;;;;;;;12.77;6.20;;;;;;;;;;5071214;28;20436;-42
2022/11/28 07:35:27;;;;;;;9.00;6.03;;;;;;;;;;5074906;28;20408;-43
2022/11/28 07:37:53;;;;;;;7.80;6.30;;;;;;;;;;5074145;28;20418;-42
2022/11/28 07:40:21;;;;;;;7.87;6.53;;;;;;;;;;5075336;28;20416;-42
2022/11/28 07:42:47;;;;;;;9.90;6.93;;;;;;;;;;5075058;28;20461;-43
2022/11/28 07:45:13;;;;;;;8.23;6.57;;;;;;;;;;5075663;28;20406;-42
2022/11/28 07:47:39;;;;;;;7.37;6.43;;;;;;;;;;5066680;28;20430;-43
2022/11/28 07:50:06;;;;;;;7.40;5.87;;;;;;;;;;5053450;28;20402;-42
2022/11/28 07:52:32;;;;;;;6.60;5.67;;;;;;;;;;5054569;28;20426;-44
2022/11/28 07:54:57;;;;;;;6.70;5.97;;;;;;;;;;5054979;28;20604;-42
2022/11/28 07:57:23;;;;;;;8.93;6.07;;;;;;;;;;5054746;28;20417;-42
2022/11/28 07:59:49;;;;;;;7.20;5.93;;;;;;;;;;5054879;28;20415;-41
2022/11/28 08:02:15;;;;;;;9.90;6.80;;;;;;;;;;5052759;28;20903;-41
2022/11/28 08:04:41;;;;;;;8.43;6.23;;;;;;;;;;5054395;28;20779;-42
2022/11/28 08:07:07;;;;;;;7.80;6.20;;;;;;;;;;5055219;28;20399;-43
2022/11/28 08:09:33;;;;;;;9.87;6.80;;;;;;;;;;5054655;28;20406;-42
2022/11/28 08:11:59;;;;;;;8.40;6.43;;;;;;;;;;5066416;28;20475;-43
2022/11/28 08:14:25;;;;;;;10.30;6.27;;;;;;;;;;5074288;28;20413;-42
2022/11/28 08:16:51;;;;;;;9.00;6.60;;;;;;;;;;5074582;28;20497;-42
2022/11/28 08:19:17;;;;;;;8.50;6.37;;;;;;;;;;5074606;28;20410;-44
2022/11/28 08:21:43;;;;;;;6.67;5.80;;;;;;;;;;5073605;28;20464;-42
2022/11/28 08:24:10;;;;;;;6.87;6.17;;;;;;;;;;5074763;28;20768;-42
2022/11/28 08:26:36;;;;;;;7.00;6.30;;;;;;;;;;5074567;28;20460;-42
2022/11/28 08:29:02;;;;;;;7.40;6.70;;;;;;;;;;5074280;28;20403;-42
2022/11/28 08:31:29;;;;;;;10.40;6.50;;;;;;;;;;5073954;28;20819;-42
2022/11/28 08:33:56;;;;;;;10.53;6.70;;;;;;;;;;5073436;28;20413;-43
2022/11/28 08:36:22;;;;;;;7.43;6.00;;;;;;;;;;5072862;28;20486;-42
2022/11/28 08:38:49;;;;;;;9.60;6.20;;;;;;;;;;5074096;28;20880;-42
2022/11/28 08:41:16;;;;;;;8.43;6.03;;;;;;;;;;5073763;28;20980;-42
2022/11/28 08:43:42;;;;;;;7.50;6.13;;;;;;;;;;5073555;28;20481;-42
2022/11/28 08:46:10;;;;;;;7.17;6.30;;;;;;;;;;5073108;28;20430;-42
2022/11/28 08:48:36;;;;;;;9.03;6.90;;;;;;;;;;5073912;28;20407;-43
2022/11/28 08:51:02;;;;;;;6.93;6.17;;;;;;;;;;5073509;28;20516;-42
2022/11/28 08:53:28;;;;;;;7.83;5.80;;;;;;;;;;5072253;28;20459;-43
2022/11/28 08:55:55;;;;;;;8.10;6.00;;;;;;;;;;5073761;28;20777;-42
2022/11/28 08:58:21;;;;;;;7.83;6.43;;;;;;;;;;5073453;28;20402;-42
2022/11/28 09:00:47;;;;;;;7.67;6.27;;;;;;;;;;5072720;28;20406;-43
2022/11/28 09:03:14;;;;;;;9.53;7.00;;;;;;;;;;5072545;28;20509;-42
2022/11/28 09:05:41;;;;;;;7.97;6.20;;;;;;;;;;5073549;28;20408;-42
2022/11/28 09:08:07;;;;;;;6.63;5.93;;;;;;;;;;5072432;28;20422;-44
2022/11/28 09:10:35;;;;;;;7.20;5.73;;;;;;;;;;5071854;28;20427;-42
2022/11/28 09:13:01;;;;;;;7.80;6.40;;;;;;;;;;5073376;28;20458;-44
2022/11/28 09:15:27;;;;;;;9.70;6.70;;;;;;;;;;5073545;28;20509;-41
2022/11/28 09:17:53;;;;;;;8.80;7.37;;;;;;;;;;5073376;28;20696;-42
2022/11/28 09:20:20;;;;;;;9.37;6.93;;;;;;;;;;5073467;28;20413;-42
2022/11/28 09:22:46;;;;;;;7.50;5.77;;;;;;;;;;5071743;28;20471;-42
2022/11/28 09:25:12;;;;;;;12.37;6.30;;;;;;;;;;5073357;28;20393;-44
2022/11/28 09:27:38;;;;;;;6.87;6.10;;;;;;;;;;5073357;28;20833;-43
2022/11/28 09:30:05;;;;;;;11.77;6.33;;;;;;;;;;5073212;28;20479;-42
2022/11/28 09:32:31;;;;;;;7.60;5.60;;;;;;;;;;5072380;28;20507;-42
2022/11/28 09:34:57;;;;;;;7.17;5.80;;;;;;;;;;5072811;28;20431;-43
2022/11/28 09:37:22;;;;;;;7.63;6.57;;;;;;;;;;5072863;28;20422;-42
2022/11/28 09:39:48;;;;;;;6.77;5.53;;;;;;;;;;5072777;28;20418;-42
2022/11/28 09:42:32;;;;;;;7.33;5.83;;;;;;;;;;5072443;28;20476;-42
2022/11/28 09:45:01;;;;;;;8.40;5.77;;;;;;;;;;5072457;28;20467;-42
2022/11/28 09:47:31;;;;;;;8.60;6.10;;;;;;;;;;5071737;28;20441;-42
2022/11/28 09:49:59;;;;;;;7.80;6.07;;;;;;;;;;5072542;28;20492;-41
2022/11/28 09:52:48;;;;;;;8.40;6.50;;;;;;;;;;5072518;28;21062;-42
2022/11/28 09:55:20;;;;;;;8.30;6.93;;;;;;;;;;5072483;28;20844;-42
2022/11/28 09:57:47;;;;;;;6.70;6.03;;;;;;;;;;5072247;28;20970;-42
2022/11/28 10:00:20;;;;;;;7.93;6.40;;;;;;;;;;5072256;28;20760;-42
2022/11/28 10:02:59;;;;;;;9.03;6.60;;;;;;;;;;5071987;28;20463;-42
2022/11/28 10:05:31;;;;;;;9.57;5.97;;;;;;;;;;5072643;28;20402;-42
2022/11/28 10:08:04;;;;;;;8.97;6.20;;;;;;;;;;5071918;28;20420;-43
2022/11/28 10:10:49;;;;;;;13.07;6.50;;;;;;;;;;5072034;28;20451;-42
2022/11/28 10:13:18;;;;;;;6.73;5.53;;;;;;;;;;5052173;28;20451;-42
2022/11/28 10:15:47;;;;;;;7.50;6.00;;;;;;;;;;5052411;28;20407;-42
2022/11/28 10:18:16;;;;;;;7.90;6.33;;;;;;;;;;5050546;28;20405;-43
2022/11/28 10:20:48;;;;;;;12.13;7.10;;;;;;;;;;5050952;28;20779;-42
2022/11/28 10:23:14;;;;;;;7.10;6.10;;;;;;;;;;5050803;28;20543;-42
2022/11/28 10:25:49;;;;;;;9.47;6.67;;;;;;;;;;5050862;28;20526;-42
2022/11/28 10:28:17;;;;;;;7.73;6.07;;;;;;;;;;5048895;28;20434;-44
2022/11/28 10:30:46;;;;;;;8.50;7.63;;;;;;;;;;5051138;28;20762;-44
2022/11/28 10:33:17;;;;;;;9.90;7.07;;;;;;;;;;5051448;28;20419;-43
2022/11/28 10:35:54;;;;;;;7.90;6.30;;;;;;;;;;5051543;28;20753;-42
2022/11/28 10:38:24;;;;;;;9.00;6.70;;;;;;;;;;5051782;28;20972;-42
2022/11/28 10:40:59;;;;;;;13.93;7.20;;;;;;;;;;5051672;28;20785;-43
2022/11/28 10:43:25;;;;;;;9.83;6.10;;;;;;;;;;5051575;28;20416;-42
2022/11/28 10:45:56;;;;;;;8.50;6.73;;;;;;;;;;5051986;28;20479;-42
2022/11/28 10:48:41;;;;;;;8.57;7.27;;;;;;;;;;5051959;28;20445;-42
2022/11/28 10:51:12;;;;;;;12.93;7.00;;;;;;;;;;5051401;28;20756;-42
2022/11/28 10:53:56;;;;;;;10.10;7.33;;;;;;;;;;5051740;28;20389;-43
2022/11/28 10:56:33;;;;;;;13.43;7.33;;;;;;;;;;5051843;28;20387;-43
2022/11/28 10:59:18;;;;;;;7.77;6.37;;;;;;;;;;5051671;28;20425;-43
2022/11/28 11:01:43;;;;;;;8.60;6.73;;;;;;;;;;5051164;28;20535;-42
2022/11/28 11:04:23;;;;;;;11.80;8.17;;;;;;;;;;5051414;28;20487;-42
2022/11/28 11:07:12;;;;;;;9.47;6.40;;;;;;;;;;5051570;28;20407;-43
2022/11/28 11:09:38;;;;;;;7.43;6.57;;;;;;;;;;5047953;28;20913;-42
2022/11/28 11:12:07;;;;;;;8.90;7.30;;;;;;;;;;5063723;28;20451;-42
2022/11/28 11:14:35;;;;;;;10.93;7.60;;;;;;;;;;5071185;28;20399;-42
2022/11/28 11:17:01;;;;;;;11.77;7.93;;;;;;;;;;5071510;28;20495;-43
2022/11/28 11:19:32;;;;;;;10.93;7.60;;;;;;;;;;5080538;28;20416;-42
2022/11/28 11:22:03;;;;;;;10.80;7.83;;;;;;;;;;5072437;28;20545;-42
2022/11/28 11:24:29;;;;;;;8.83;7.47;;;;;;;;;;5071426;28;20401;-42
2022/11/28 11:27:02;;;;;;;10.00;7.33;;;;;;;;;;5071571;28;20460;-42
2022/11/28 11:29:28;;;;;;;7.90;7.07;;;;;;;;;;5071515;28;20763;-43
2022/11/28 11:31:55;;;;;;;8.97;7.37;;;;;;;;;;5071036;28;20505;-43
2022/11/28 11:34:22;;;;;;;8.23;6.50;;;;;;;;;;5071317;28;20403;-43
2022/11/28 11:36:48;;;;;;;6.50;5.90;;;;;;;;;;5065275;28;20431;-42
2022/11/28 11:39:14;;;;;;;8.53;7.10;;;;;;;;;;5070553;28;20507;-42
2022/11/28 11:41:50;;;;;;;10.17;7.37;;;;;;;;;;5062726;28;20565;-42
2022/11/28 11:44:27;;;;;;;8.50;7.30;;;;;;;;;;5073360;28;20441;-42
2022/11/28 11:46:55;;;;;;;8.00;7.20;;;;;;;;;;5070432;28;20449;-43
2022/11/28 11:49:38;;;;;;;7.80;7.00;;;;;;;;;;5051241;28;20825;-43
2022/11/28 11:52:06;;;;;;;9.33;7.17;;;;;;;;;;5078995;28;20433;-43
2022/11/28 11:54:32;;;;;;;15.47;7.37;;;;;;;;;;5089458;28;20424;-42
2022/11/28 11:56:58;;;;;;;7.67;6.87;;;;;;;;;;5085567;28;20411;-42
2022/11/28 11:59:39;;;;;;;14.50;8.33;;;;;;;;;;5070790;28;20506;-43
2022/11/28 12:02:22;;;;;;;13.00;8.33;;;;;;;;;;5050688;28;20449;-42
2022/11/28 12:04:51;;;;;;;8.40;7.10;;;;;;;;;;5051174;28;20397;-41
2022/11/28 12:07:23;;;;;;;8.93;7.10;;;;;;;;;;5051858;28;20390;-43
2022/11/28 12:09:51;;;;;;;10.40;7.77;;;;;;;;;;5070867;28;20903;-43
2022/11/28 12:12:20;;;;;;;14.40;7.67;;;;;;;;;;5070212;28;20437;-44
2022/11/28 12:14:46;;;;;;;11.60;7.60;;;;;;;;;;5071060;28;20916;-43
2022/11/28 12:17:15;;;;;;;10.07;7.67;;;;;;;;;;5066113;28;20419;-42
2022/11/28 12:20:00;;;;;;;12.07;8.40;;;;;;;;;;5062420;28;20542;-42
2022/11/28 12:22:26;;;;;;;9.50;6.80;;;;;;;;;;5066802;28;20459;-43
2022/11/28 12:25:10;;;;;;;8.60;7.70;;;;;;;;;;5079825;28;20403;-41
2022/11/28 12:27:39;;;;;;;12.33;7.43;;;;;;;;;;5074538;28;20979;-43
2022/11/28 12:30:11;;;;;;;11.00;8.10;;;;;;;;;;5074263;28;20387;-41
2022/11/28 12:32:46;;;;;;;14.43;9.57;;;;;;;;;;5073416;28;20425;-42
2022/11/28 12:35:24;;;;;;;8.73;6.70;;;;;;;;;;5073741;28;20451;-43
2022/11/28 12:38:00;;;;;;;10.43;7.87;;;;;;;;;;5070162;28;20946;-42
2022/11/28 12:40:31;;;;;;;11.90;7.23;;;;;;;;;;5067058;28;20426;-42
2022/11/28 12:42:57;;;;;;;11.50;8.00;;;;;;;;;;5081961;28;20450;-43
2022/11/28 12:45:27;;;;;;;10.60;8.00;;;;;;;;;;5070090;28;20476;-43
2022/11/28 12:47:53;;;;;;;12.37;7.53;;;;;;;;;;5064876;28;20415;-42
2022/11/28 12:50:25;;;;;;;9.63;7.17;;;;;;;;;;5066925;28;20404;-42
2022/11/28 12:53:03;;;;;;;11.17;7.73;;;;;;;;;;5065674;28;20474;-43
2022/11/28 12:56:04;;;;;;;11.30;7.83;;;;;;;;;;5080584;28;20412;-41
2022/11/28 12:58:38;;;;;;;8.83;7.23;;;;;;;;;;5039658;28;20919;-42
2022/11/28 13:01:22;;;;;;;9.60;8.20;;;;;;;;;;5069087;28;20889;-41
2022/11/28 13:04:03;;;;;;;10.40;8.33;;;;;;;;;;5073242;28;20953;-43
2022/11/28 13:06:32;;;;;;;11.00;8.50;;;;;;;;;;5073530;28;20452;-42
2022/11/28 13:09:05;;;;;;;9.30;7.80;;;;;;;;;;5069855;28;20419;-42
2022/11/28 13:11:40;;;;;;;10.63;8.43;;;;;;;;;;5065524;28;20479;-42
2022/11/28 13:14:24;;;;;;;8.63;7.77;;;;;;;;;;5066606;28;20457;-43
2022/11/28 13:16:52;;;;;;;10.10;7.23;;;;;;;;;;5066059;28;20507;-42
2022/11/28 13:19:31;;;;;;;9.27;7.83;;;;;;;;;;5068277;28;20405;-41
2022/11/28 13:22:03;;;;;;;9.10;6.70;;;;;;;;;;5059448;28;20844;-42
2022/11/28 13:24:34;;;;;;;10.77;8.40;;;;;;;;;;5064366;28;20432;-42
2022/11/28 13:27:03;;;;;;;14.83;7.70;;;;;;;;;;5063302;28;20406;-42
2022/11/28 13:29:37;;;;;;;10.53;7.57;;;;;;;;;;5071025;28;20418;-43
2022/11/28 13:32:12;;;;;;;8.00;7.10;;;;;;;;;;5072668;28;20434;-42
2022/11/28 13:34:38;;;;;;;8.53;7.70;;;;;;;;;;5073622;28;20790;-41
2022/11/28 13:37:11;;;;;;;9.57;7.33;;;;;;;;;;5073230;28;20460;-41
2022/11/28 13:39:49;;;;;;;9.07;7.33;;;;;;;;;;5072309;28;20415;-41
2022/11/28 13:42:15;;;;;;;10.13;7.50;;;;;;;;;;5072785;28;20568;-41
2022/11/28 13:44:41;;;;;;;9.00;8.10;;;;;;;;;;5073561;28;20917;-41
2022/11/28 13:47:26;;;;;;;9.67;7.10;;;;;;;;;;5072250;28;20397;-41
2022/11/28 13:50:12;;;;;;;9.70;8.00;;;;;;;;;;5071332;28;20501;-41
2022/11/28 13:52:42;;;;;;;9.43;7.10;;;;;;;;;;5071927;28;20910;-41
2022/11/28 13:55:28;;;;;;;8.27;6.53;;;;;;;;;;5072111;28;20904;-41
2022/11/28 13:57:55;;;;;;;10.60;6.93;;;;;;;;;;5072158;28;20479;-41
2022/11/28 14:00:22;;;;;;;7.93;7.13;;;;;;;;;;5071902;28;20931;-41
2022/11/28 14:02:54;;;;;;;8.57;6.87;;;;;;;;;;5072252;28;20459;-41
2022/11/28 14:05:25;;;;;;;7.73;6.93;;;;;;;;;;5072741;28;20407;-41
2022/11/28 14:07:51;;;;;;;7.67;6.87;;;;;;;;;;5072782;28;20410;-41
2022/11/28 14:10:23;;;;;;;9.13;7.73;;;;;;;;;;5072634;28;20514;-41
2022/11/28 14:12:49;;;;;;;7.57;6.87;;;;;;;;;;5072240;28;20445;-41
2022/11/28 14:15:34;;;;;;;8.57;7.67;;;;;;;;;;5072578;28;20404;-41
2022/11/28 14:18:06;;;;;;;7.80;7.00;;;;;;;;;;5072612;28;20398;-41
2022/11/28 14:20:37;;;;;;;9.30;7.53;;;;;;;;;;5071100;28;20411;-41
2022/11/28 14:23:10;;;;;;;10.60;7.20;;;;;;;;;;5072027;28;20833;-41
2022/11/28 14:25:40;;;;;;;8.63;7.13;;;;;;;;;;5072495;28;20527;-41
2022/11/28 14:28:15;;;;;;;7.30;6.70;;;;;;;;;;5072343;28;20408;-41
2022/11/28 14:30:42;;;;;;;9.33;6.87;;;;;;;;;;5072294;28;20400;-41
2022/11/28 14:33:14;;;;;;;9.30;7.73;;;;;;;;;;5072052;28;20450;-41
2022/11/28 14:36:00;;;;;;;8.93;7.30;;;;;;;;;;5072022;28;20985;-41
2022/11/28 14:38:32;;;;;;;18.13;7.40;;;;;;;;;;5071938;28;20415;-42
2022/11/28 14:40:58;;;;;;;9.50;8.10;;;;;;;;;;5071708;28;20415;-41
2022/11/28 14:43:29;;;;;;;13.20;10.20;;;;;;;;;;5071365;28;20458;-42
2022/11/28 14:46:15;;;;;;;8.67;7.60;;;;;;;;;;5071947;28;20409;-41
2022/11/28 14:48:43;;;;;;;9.53;8.00;;;;;;;;;;5064789;28;20832;-41
2022/11/28 14:51:09;;;;;;;7.90;7.03;;;;;;;;;;5071643;28;20917;-42
2022/11/28 14:53:35;;;;;;;8.07;7.27;;;;;;;;;;5071963;28;20497;-41
2022/11/28 14:56:11;;;;;;;7.37;6.60;;;;;;;;;;5071854;28;20414;-42
2022/11/28 14:58:37;;;;;;;12.33;7.80;;;;;;;;;;5071930;28;20834;-41
2022/11/28 15:01:04;;;;;;;8.00;7.20;;;;;;;;;;5071557;28;20447;-42